createdAt,value
2022-11-17T00:00:44.901Z,7.80
2022-11-17T00:03:16.002Z,7.80
2022-11-17T00:05:44.754Z,7.80
2022-11-17T00:08:13.119Z,7.80
2022-11-17T00:10:41.266Z,7.70
2022-11-17T00:13:29.175Z,7.60
2022-11-17T00:15:58.652Z,7.60
2022-11-17T00:18:44.206Z,7.70
2022-11-17T00:21:21.439Z,7.70
2022-11-17T00:23:51.021Z,7.80
2022-11-17T00:26:21.559Z,7.80
2022-11-17T00:28:52.818Z,7.70
2022-11-17T00:31:41.739Z,7.80
2022-11-17T00:34:15.557Z,7.80
2022-11-17T00:36:48.283Z,7.80
2022-11-17T00:39:18.840Z,7.80
2022-11-17T00:41:47.196Z,7.80
2022-11-17T00:44:16.189Z,7.80
2022-11-17T00:46:45.693Z,7.80
2022-11-17T00:49:14.509Z,7.80
2022-11-17T00:51:43.191Z,7.80
2022-11-17T00:54:14.919Z,7.70
2022-11-17T00:56:43.119Z,7.60
2022-11-17T00:59:11.671Z,7.50
2022-11-17T01:01:41.346Z,7.30
2022-11-17T01:04:10.876Z,7.20
2022-11-17T01:06:43.288Z,7.20
2022-11-17T01:09:14.753Z,7.30
2022-11-17T01:11:43.949Z,7.40
2022-11-17T01:14:15.420Z,7.50
2022-11-17T01:16:43.761Z,7.50
2022-11-17T01:19:15.562Z,7.40
2022-11-17T01:21:44.198Z,7.40
2022-11-17T01:24:15.136Z,7.30
2022-11-17T01:26:44.593Z,7.20
2022-11-17T01:29:16.952Z,7.10
2022-11-17T01:31:46.538Z,7.00
2022-11-17T01:34:15.902Z,7.00
2022-11-17T01:37:02.482Z,7.10
2022-11-17T01:39:32.481Z,7.10
2022-11-17T01:42:11.375Z,7.00
2022-11-17T01:45:01.078Z,7.00
2022-11-17T01:47:43.530Z,7.10
2022-11-17T01:50:35.505Z,7.10
2022-11-17T01:53:09.666Z,7.00
2022-11-17T01:55:44.152Z,7.00
2022-11-17T01:58:17.340Z,6.90
2022-11-17T02:00:45.827Z,6.80
2022-11-17T02:03:14.724Z,6.80
2022-11-17T02:05:55.991Z,6.80
2022-11-17T02:08:29.684Z,6.80
2022-11-17T02:10:59.415Z,6.70
2022-11-17T02:13:29.294Z,6.80
2022-11-17T02:15:57.352Z,6.70
2022-11-17T02:18:25.832Z,6.70
2022-11-17T02:21:29.985Z,6.70
2022-11-17T02:24:27.789Z,6.70
2022-11-17T02:27:42.162Z,6.70
2022-11-17T02:30:14.725Z,6.70
2022-11-17T02:33:00.315Z,6.70
2022-11-17T02:35:37.587Z,6.70
2022-11-17T02:38:20.124Z,6.70
2022-11-17T02:40:55.380Z,6.70
2022-11-17T02:43:50.159Z,6.70
2022-11-17T02:46:22.562Z,6.80
2022-11-17T02:48:57.456Z,6.80
2022-11-17T02:51:26.300Z,6.80
2022-11-17T02:53:57.290Z,6.80
2022-11-17T02:56:25.454Z,6.90
2022-11-17T02:59:00.655Z,6.80
2022-11-17T03:02:09.761Z,6.80
2022-11-17T03:04:50.435Z,6.80
2022-11-17T03:07:36.799Z,6.90
2022-11-17T03:10:15.802Z,6.90
2022-11-17T03:12:54.511Z,6.80
2022-11-17T03:15:35.499Z,6.80
2022-11-17T03:18:11.800Z,6.80
2022-11-17T03:20:50.907Z,6.90
2022-11-17T03:23:25.745Z,6.90
2022-11-17T03:25:58.897Z,6.90
2022-11-17T03:28:32.751Z,6.90
2022-11-17T03:31:06.519Z,7.00
2022-11-17T03:33:37.570Z,7.00
2022-11-17T03:36:12.817Z,7.00
2022-11-17T03:38:52.735Z,7.00
2022-11-17T03:41:23.719Z,7.10
2022-11-17T03:43:57.212Z,7.10
2022-11-17T03:46:30.796Z,7.10
2022-11-17T03:49:09.456Z,7.20
2022-11-17T03:51:38.457Z,7.30
2022-11-17T03:54:08.166Z,7.40
2022-11-17T03:56:44.254Z,7.40
2022-11-17T03:59:19.549Z,7.50
2022-11-17T04:01:49.102Z,7.50
2022-11-17T04:04:20.345Z,7.50
2022-11-17T04:06:50.655Z,7.60
2022-11-17T04:09:24.029Z,7.60
2022-11-17T04:12:10.131Z,7.60
2022-11-17T04:14:55.679Z,7.60
2022-11-17T04:17:25.315Z,7.60
2022-11-17T04:19:53.472Z,7.60
2022-11-17T04:22:21.550Z,7.70
2022-11-17T04:24:49.632Z,7.70
2022-11-17T04:27:40.617Z,7.70
2022-11-17T04:30:10.440Z,7.70
2022-11-17T04:32:39.872Z,7.70
2022-11-17T04:35:09.158Z,7.70
2022-11-17T04:37:37.198Z,7.70
2022-11-17T04:40:06.886Z,7.70
2022-11-17T04:42:33.971Z,7.70
2022-11-17T04:45:02.010Z,7.80
2022-11-17T04:47:30.084Z,7.80
2022-11-17T04:49:59.479Z,7.80
2022-11-17T04:52:29.905Z,7.90
2022-11-17T04:54:58.144Z,7.80
2022-11-17T04:57:26.424Z,7.90
2022-11-17T04:59:54.486Z,7.70
2022-11-17T05:02:22.592Z,7.60
2022-11-17T05:04:56.809Z,7.70
2022-11-17T05:07:27.776Z,7.70
2022-11-17T05:09:55.871Z,7.70
2022-11-17T05:12:41.728Z,7.70
2022-11-17T05:15:10.717Z,7.70
2022-11-17T05:17:37.800Z,7.50
2022-11-17T05:20:07.311Z,7.40
2022-11-17T05:22:54.507Z,7.30
2022-11-17T05:25:22.628Z,7.30
2022-11-17T05:27:50.789Z,7.20
2022-11-17T05:30:19.107Z,7.20
2022-11-17T05:32:47.238Z,7.20
2022-11-17T05:35:15.423Z,7.20
2022-11-17T05:37:44.843Z,7.20
2022-11-17T05:40:13.534Z,7.20
2022-11-17T05:42:41.654Z,7.20
2022-11-17T05:45:10.985Z,7.20
2022-11-17T05:47:39.761Z,7.20
2022-11-17T05:50:08.664Z,7.20
2022-11-17T05:52:36.760Z,7.20
2022-11-17T05:55:07.922Z,7.20
2022-11-17T05:57:36.116Z,7.20
2022-11-17T06:00:06.085Z,7.30
2022-11-17T06:02:48.350Z,7.30
2022-11-17T06:05:20.166Z,7.20
2022-11-17T06:07:49.549Z,7.30
2022-11-17T06:10:19.284Z,7.40
2022-11-17T06:12:47.747Z,7.40
2022-11-17T06:15:16.145Z,7.40
2022-11-17T06:17:50.740Z,7.40
2022-11-17T06:20:24.156Z,7.50
2022-11-17T06:22:52.553Z,7.40
2022-11-17T06:25:22.311Z,7.30
2022-11-17T06:27:52.839Z,7.30
2022-11-17T06:30:21.087Z,7.30
2022-11-17T06:32:50.904Z,7.30
2022-11-17T06:35:19.159Z,7.30
2022-11-17T06:37:47.226Z,7.30
2022-11-17T06:40:16.007Z,7.30
2022-11-17T06:43:03.094Z,7.30
2022-11-17T06:45:34.159Z,7.30
2022-11-17T06:48:02.458Z,7.30
2022-11-17T06:50:30.746Z,7.30
2022-11-17T06:52:59.935Z,7.30
2022-11-17T06:55:29.307Z,7.30
2022-11-17T06:58:02.705Z,7.30
2022-11-17T07:00:31.752Z,7.30
2022-11-17T07:03:03.696Z,7.30
2022-11-17T07:05:33.326Z,7.30
2022-11-17T07:08:03.577Z,7.30
2022-11-17T07:10:33.315Z,7.20
2022-11-17T07:13:03.175Z,7.30
2022-11-17T07:15:31.273Z,7.30
2022-11-17T07:17:59.475Z,7.30
2022-11-17T07:20:27.705Z,7.30
2022-11-17T07:23:00.850Z,7.30
2022-11-17T07:25:28.934Z,7.30
2022-11-17T07:28:00.716Z,7.30
2022-11-17T07:30:30.567Z,7.30
2022-11-17T07:33:00.756Z,7.30
2022-11-17T07:35:29.392Z,7.40
2022-11-17T07:38:01.727Z,7.40
2022-11-17T07:40:30.427Z,7.50
2022-11-17T07:42:58.606Z,7.50
2022-11-17T07:45:31.789Z,7.50
2022-11-17T07:48:04.248Z,7.50
2022-11-17T07:50:33.252Z,7.60
2022-11-17T07:53:01.573Z,7.60
2022-11-17T07:55:29.719Z,7.60
2022-11-17T07:57:59.471Z,7.60
2022-11-17T08:00:29.185Z,7.60
2022-11-17T08:03:00.700Z,7.60
2022-11-17T08:05:32.039Z,7.60
2022-11-17T08:08:00.990Z,7.60
2022-11-17T08:10:31.217Z,7.60
2022-11-17T08:13:00.886Z,7.60
2022-11-17T08:15:29.527Z,7.60
2022-11-17T08:17:59.527Z,7.60
2022-11-17T08:20:30.141Z,7.60
2022-11-17T08:22:58.567Z,7.60
2022-11-17T08:25:28.682Z,7.60
2022-11-17T08:27:58.153Z,7.60
2022-11-17T08:30:27.109Z,7.60
2022-11-17T08:32:56.095Z,7.50
2022-11-17T08:35:26.783Z,7.60
2022-11-17T08:37:56.473Z,7.60
2022-11-17T08:40:24.682Z,7.60
2022-11-17T08:43:00.599Z,7.60
2022-11-17T08:45:29.626Z,7.60
2022-11-17T08:47:58.093Z,7.70
2022-11-17T08:50:26.928Z,7.70
2022-11-17T08:52:56.359Z,7.70
2022-11-17T08:55:26.221Z,7.80
2022-11-17T08:57:54.570Z,7.80
2022-11-17T09:00:22.755Z,7.80
2022-11-17T09:02:50.915Z,7.80
2022-11-17T09:05:20.950Z,7.80
2022-11-17T09:07:49.155Z,7.90
2022-11-17T09:10:19.272Z,7.90
2022-11-17T09:12:47.319Z,7.90
2022-11-17T09:15:15.460Z,7.90
2022-11-17T09:17:47.653Z,8.00
2022-11-17T09:20:16.695Z,7.90
2022-11-17T09:22:45.419Z,8.00
2022-11-17T09:25:14.071Z,8.00
2022-11-17T09:27:43.731Z,8.10
2022-11-17T09:30:12.734Z,8.20
2022-11-17T09:32:40.883Z,8.20
2022-11-17T09:35:10.915Z,8.20
2022-11-17T09:37:38.998Z,8.20
2022-11-17T09:40:11.323Z,8.30
2022-11-17T09:42:41.132Z,8.20
2022-11-17T09:45:19.127Z,8.10
2022-11-17T09:48:12.299Z,8.10
2022-11-17T09:50:47.787Z,8.00
2022-11-17T09:53:26.497Z,8.00
2022-11-17T09:55:59.666Z,8.00
2022-11-17T09:58:37.828Z,7.90
2022-11-17T10:01:12.452Z,7.90
2022-11-17T10:03:46.173Z,7.80
2022-11-17T10:06:20.972Z,7.80
2022-11-17T10:09:00.348Z,7.90
2022-11-17T10:11:34.950Z,7.80
2022-11-17T10:14:18.619Z,7.90
2022-11-17T10:16:54.335Z,7.90
2022-11-17T10:19:25.514Z,8.00
2022-11-17T10:21:58.924Z,8.00
2022-11-17T10:24:36.192Z,8.00
2022-11-17T10:27:07.482Z,8.00
2022-11-17T10:29:35.547Z,8.10
2022-11-17T10:32:15.717Z,8.10
2022-11-17T10:34:43.950Z,8.20
2022-11-17T10:37:31.969Z,8.30
2022-11-17T10:40:25.429Z,8.30
2022-11-17T10:43:26.090Z,8.40
2022-11-17T10:45:58.378Z,8.40
2022-11-17T10:48:31.024Z,8.50
2022-11-17T10:51:01.587Z,8.60
2022-11-17T10:53:41.368Z,8.70
2022-11-17T10:56:18.781Z,8.60
2022-11-17T10:59:14.527Z,8.70
2022-11-17T11:01:45.774Z,8.90
2022-11-17T11:04:34.470Z,9.00
2022-11-17T11:07:12.261Z,9.00
2022-11-17T11:09:48.739Z,9.00
2022-11-17T11:12:25.706Z,9.10
2022-11-17T11:14:59.843Z,9.20
2022-11-17T11:17:30.559Z,9.20
2022-11-17T11:20:00.554Z,9.20
2022-11-17T11:22:37.892Z,9.10
2022-11-17T11:25:26.360Z,9.00
2022-11-17T11:28:13.183Z,8.90
2022-11-17T11:31:00.038Z,8.80
2022-11-17T11:33:38.818Z,8.70
2022-11-17T11:36:26.241Z,8.70
2022-11-17T11:39:04.935Z,8.80
2022-11-17T11:41:57.147Z,9.20
2022-11-17T11:44:45.220Z,10.10
2022-11-17T11:47:35.514Z,11.10
2022-11-17T11:50:14.811Z,10.40
2022-11-17T11:52:52.391Z,9.80
2022-11-17T11:55:25.416Z,9.40
2022-11-17T11:58:05.327Z,9.20
2022-11-17T12:00:35.449Z,9.10
2022-11-17T12:03:16.595Z,9.10
2022-11-17T12:06:26.831Z,9.10
2022-11-17T12:09:15.251Z,9.10
2022-11-17T12:12:03.266Z,9.00
2022-11-17T12:14:33.757Z,9.00
2022-11-17T12:17:17.142Z,8.90
2022-11-17T12:19:58.727Z,8.90
2022-11-17T12:23:05.837Z,8.80
2022-11-17T12:25:37.501Z,8.80
2022-11-17T12:28:38.122Z,8.70
2022-11-17T12:31:10.365Z,8.60
2022-11-17T12:34:18.519Z,8.50
2022-11-17T12:37:23.057Z,8.40
2022-11-17T12:40:06.262Z,8.30
2022-11-17T12:42:37.207Z,8.20
2022-11-17T12:45:12.324Z,8.20
2022-11-17T12:47:44.374Z,8.20
2022-11-17T12:50:58.238Z,8.10
2022-11-17T12:53:39.904Z,8.10
2022-11-17T12:56:55.979Z,8.10
2022-11-17T12:59:58.014Z,8.00
2022-11-17T13:02:54.209Z,8.10
2022-11-17T13:05:25.406Z,8.10
2022-11-17T13:08:10.926Z,8.10
2022-11-17T13:10:39.041Z,8.10
2022-11-17T13:13:17.061Z,8.10
2022-11-17T13:15:51.214Z,8.20
2022-11-17T13:18:31.558Z,8.20
2022-11-17T13:21:01.238Z,8.20
2022-11-17T13:23:32.375Z,8.30
2022-11-17T13:26:12.120Z,8.40
2022-11-17T13:28:40.171Z,8.40
2022-11-17T13:31:18.278Z,8.40
2022-11-17T13:34:00.495Z,8.50
2022-11-17T13:36:28.564Z,8.40
2022-11-17T13:39:00.315Z,8.40
2022-11-17T13:41:34.886Z,8.30
2022-11-17T13:44:03.642Z,8.30
2022-11-17T13:46:33.090Z,8.30
2022-11-17T13:49:01.203Z,8.30
2022-11-17T13:51:38.595Z,8.30
2022-11-17T13:54:17.640Z,8.30
2022-11-17T13:56:53.185Z,8.30
2022-11-17T13:59:27.377Z,8.20
2022-11-17T14:02:26.769Z,8.20
2022-11-17T14:05:25.321Z,8.20
2022-11-17T14:07:56.798Z,8.20
2022-11-17T14:10:33.033Z,8.20
2022-11-17T14:13:23.892Z,8.20
2022-11-17T14:15:56.483Z,8.20
2022-11-17T14:18:34.162Z,8.20
2022-11-17T14:21:12.107Z,8.10
2022-11-17T14:23:41.446Z,8.10
2022-11-17T14:26:20.974Z,8.10
2022-11-17T14:28:51.302Z,8.00
2022-11-17T14:31:19.868Z,7.90
2022-11-17T14:33:50.437Z,7.90
2022-11-17T14:36:19.396Z,7.90
2022-11-17T14:38:48.651Z,7.90
2022-11-17T14:41:19.109Z,7.90
2022-11-17T14:43:47.971Z,7.90
2022-11-17T14:46:22.699Z,7.90
2022-11-17T14:48:53.371Z,8.00
2022-11-17T14:51:22.591Z,8.00
2022-11-17T14:53:51.001Z,8.00
2022-11-17T14:56:21.921Z,8.00
2022-11-17T14:58:57.993Z,8.00
2022-11-17T15:01:30.402Z,8.00
2022-11-17T15:04:20.655Z,8.00
2022-11-17T15:06:50.642Z,8.00
2022-11-17T15:09:20.509Z,8.00
2022-11-17T15:11:48.805Z,8.00
2022-11-17T15:14:17.066Z,8.10
2022-11-17T15:16:45.502Z,8.10
2022-11-17T15:19:14.904Z,8.10
2022-11-17T15:21:42.981Z,8.10
2022-11-17T15:24:11.098Z,8.00
2022-11-17T15:26:39.215Z,8.00
2022-11-17T15:29:07.303Z,8.00
2022-11-17T15:31:35.769Z,8.00
2022-11-17T15:34:03.902Z,8.00
2022-11-17T15:36:33.395Z,8.00
2022-11-17T15:39:01.536Z,8.00
2022-11-17T15:41:32.787Z,8.00
2022-11-17T15:44:01.317Z,8.00
2022-11-17T15:46:29.428Z,8.00
2022-11-17T15:48:57.919Z,8.00
2022-11-17T15:51:28.699Z,8.00
2022-11-17T15:54:01.074Z,8.00
2022-11-17T15:56:31.462Z,8.00
2022-11-17T15:59:03.452Z,8.00
2022-11-17T16:01:33.655Z,8.00
2022-11-17T16:04:03.820Z,8.00
2022-11-17T16:06:34.356Z,8.00
2022-11-17T16:09:06.410Z,8.10
2022-11-17T16:11:35.763Z,8.10
2022-11-17T16:14:04.577Z,8.10
2022-11-17T16:16:35.947Z,8.00
2022-11-17T16:19:04.733Z,8.00
2022-11-17T16:21:32.872Z,8.00
2022-11-17T16:24:03.379Z,8.10
2022-11-17T16:26:32.499Z,8.10
2022-11-17T16:29:02.692Z,8.10
2022-11-17T16:31:33.313Z,8.10
2022-11-17T16:34:04.337Z,8.10
2022-11-17T16:36:36.775Z,8.10
2022-11-17T16:39:11.491Z,8.10
2022-11-17T16:41:42.082Z,8.10
2022-11-17T16:44:13.065Z,8.10
2022-11-17T16:46:45.200Z,8.20
2022-11-17T16:49:16.159Z,8.20
2022-11-17T16:51:49.543Z,8.20
2022-11-17T16:54:20.729Z,8.10
2022-11-17T16:56:49.127Z,8.10
2022-11-17T16:59:17.600Z,8.20
2022-11-17T17:01:46.350Z,8.10
2022-11-17T17:04:15.225Z,8.10
2022-11-17T17:06:45.863Z,8.20
2022-11-17T17:09:16.835Z,8.20
2022-11-17T17:11:48.299Z,8.10
2022-11-17T17:14:17.138Z,8.20
2022-11-17T17:16:45.242Z,8.20
2022-11-17T17:19:15.395Z,8.20
2022-11-17T17:21:45.539Z,8.20
2022-11-17T17:24:13.960Z,8.20
2022-11-17T17:26:42.559Z,8.20
2022-11-17T17:29:13.341Z,8.20
2022-11-17T17:31:43.339Z,8.20
2022-11-17T17:34:14.994Z,8.20
2022-11-17T17:36:43.194Z,8.20
2022-11-17T17:39:16.606Z,8.30
2022-11-17T17:41:45.984Z,8.30
2022-11-17T17:44:18.606Z,8.20
2022-11-17T17:46:48.668Z,8.20
2022-11-17T17:49:18.853Z,8.20
2022-11-17T17:51:47.460Z,8.20
2022-11-17T17:54:18.472Z,8.20
2022-11-17T17:56:47.702Z,8.10
2022-11-17T17:59:17.639Z,8.10
2022-11-17T18:01:47.771Z,8.10
2022-11-17T18:04:17.250Z,8.10
2022-11-17T18:06:48.033Z,8.20
2022-11-17T18:09:19.324Z,8.20
2022-11-17T18:11:50.032Z,8.20
2022-11-17T18:14:24.343Z,8.20
2022-11-17T18:16:53.781Z,8.10
2022-11-17T18:19:25.715Z,8.10
2022-11-17T18:21:56.420Z,8.10
2022-11-17T18:24:24.555Z,8.00
2022-11-17T18:26:52.710Z,8.00
2022-11-17T18:29:22.183Z,8.00
2022-11-17T18:31:50.581Z,8.00
2022-11-17T18:34:21.669Z,8.00
2022-11-17T18:36:50.550Z,8.00
2022-11-17T18:39:18.945Z,8.00
2022-11-17T18:41:47.393Z,8.00
2022-11-17T18:44:18.389Z,8.00
2022-11-17T18:46:48.208Z,8.00
2022-11-17T18:49:16.625Z,8.00
2022-11-17T18:51:44.986Z,8.10
2022-11-17T18:54:14.573Z,8.10
2022-11-17T18:56:44.466Z,8.10
2022-11-17T18:59:12.721Z,8.00
2022-11-17T19:01:43.440Z,8.00
2022-11-17T19:04:14.903Z,8.00
2022-11-17T19:06:43.147Z,8.00
2022-11-17T19:09:11.548Z,8.00
2022-11-17T19:11:39.674Z,8.00
2022-11-17T19:14:08.325Z,8.00
2022-11-17T19:16:42.592Z,8.00
2022-11-17T19:19:15.115Z,8.00
2022-11-17T19:21:44.209Z,7.90
2022-11-17T19:24:12.858Z,7.90
2022-11-17T19:26:40.919Z,8.00
2022-11-17T19:29:17.288Z,7.90
2022-11-17T19:31:46.583Z,7.90
2022-11-17T19:34:16.977Z,7.90
2022-11-17T19:36:45.578Z,7.90
2022-11-17T19:39:15.052Z,7.80
2022-11-17T19:41:44.963Z,7.90
2022-11-17T19:44:16.329Z,7.90
2022-11-17T19:46:44.405Z,7.80
2022-11-17T19:49:15.059Z,7.90
2022-11-17T19:51:44.880Z,7.90
2022-11-17T19:54:14.463Z,7.90
2022-11-17T19:56:42.623Z,7.90
2022-11-17T19:59:15.623Z,7.90
2022-11-17T20:01:45.731Z,7.90
2022-11-17T20:04:13.912Z,7.90
2022-11-17T20:06:42.021Z,7.90
2022-11-17T20:09:14.886Z,7.90
2022-11-17T20:11:43.827Z,7.90
2022-11-17T20:14:11.987Z,7.90
2022-11-17T20:16:40.037Z,7.90
2022-11-17T20:19:08.214Z,7.90
2022-11-17T20:21:36.365Z,7.90
2022-11-17T20:24:04.960Z,7.90
2022-11-17T20:26:36.181Z,7.90
2022-11-17T20:29:04.496Z,7.90
2022-11-17T20:31:36.065Z,7.80
2022-11-17T20:34:06.152Z,7.80
2022-11-17T20:36:36.132Z,7.80
2022-11-17T20:39:06.822Z,7.70
2022-11-17T20:41:36.268Z,7.70
2022-11-17T20:44:04.616Z,7.70
2022-11-17T20:46:32.815Z,7.60
2022-11-17T20:49:00.989Z,7.60
2022-11-17T20:51:29.172Z,7.60
2022-11-17T20:53:57.393Z,7.50
2022-11-17T20:56:25.476Z,7.50
2022-11-17T20:58:54.897Z,7.40
2022-11-17T21:01:24.214Z,7.40
2022-11-17T21:03:53.120Z,7.40
2022-11-17T21:06:23.164Z,7.30
2022-11-17T21:08:51.580Z,7.30
2022-11-17T21:11:40.200Z,7.20
2022-11-17T21:14:12.564Z,7.20
2022-11-17T21:16:44.337Z,7.20
2022-11-17T21:19:13.531Z,7.20
2022-11-17T21:21:41.859Z,7.20
2022-11-17T21:24:10.637Z,7.20
2022-11-17T21:26:39.037Z,7.20
2022-11-17T21:29:07.309Z,7.20
2022-11-17T21:31:37.148Z,7.30
2022-11-17T21:34:07.470Z,7.30
2022-11-17T21:36:36.733Z,7.20
2022-11-17T21:39:05.955Z,7.30
2022-11-17T21:41:37.746Z,7.30
2022-11-17T21:44:06.219Z,7.30
2022-11-17T21:46:37.015Z,7.20
2022-11-17T21:49:05.310Z,7.20
2022-11-17T21:51:38.406Z,7.20
2022-11-17T21:54:09.685Z,7.20
2022-11-17T21:56:38.357Z,7.20
2022-11-17T21:59:10.932Z,7.20
2022-11-17T22:01:40.893Z,7.30
2022-11-17T22:04:09.619Z,7.30
2022-11-17T22:06:40.176Z,7.30
2022-11-17T22:09:08.565Z,7.30
2022-11-17T22:11:37.324Z,7.30
2022-11-17T22:14:09.762Z,7.30
2022-11-17T22:16:41.684Z,7.30
2022-11-17T22:19:11.069Z,7.40
2022-11-17T22:21:40.221Z,7.40
2022-11-17T22:24:11.136Z,7.40
2022-11-17T22:26:41.485Z,7.40
2022-11-17T22:29:14.799Z,7.40
2022-11-17T22:31:45.112Z,7.30
2022-11-17T22:34:14.211Z,7.30
2022-11-17T22:36:42.600Z,7.30
2022-11-17T22:39:10.918Z,7.30
2022-11-17T22:41:39.384Z,7.40
2022-11-17T22:44:07.660Z,7.40
2022-11-17T22:46:36.267Z,7.40
2022-11-17T22:49:05.677Z,7.40
2022-11-17T22:51:51.712Z,7.40
2022-11-17T22:54:19.798Z,7.40
2022-11-17T22:56:47.987Z,7.40
2022-11-17T22:59:16.428Z,7.40
2022-11-17T23:01:44.803Z,7.30
2022-11-17T23:04:15.579Z,7.30
2022-11-17T23:06:43.838Z,7.30
2022-11-17T23:09:13.148Z,7.30
2022-11-17T23:11:41.653Z,7.30
2022-11-17T23:14:14.695Z,7.30
2022-11-17T23:16:43.715Z,7.30
2022-11-17T23:19:15.598Z,7.30
2022-11-17T23:21:44.196Z,7.30
2022-11-17T23:24:14.453Z,7.20
2022-11-17T23:26:43.871Z,7.30
2022-11-17T23:29:12.391Z,7.30
2022-11-17T23:31:40.676Z,7.30
2022-11-17T23:34:11.350Z,7.20
2022-11-17T23:36:40.926Z,7.20
2022-11-17T23:39:09.298Z,7.30
2022-11-17T23:41:37.407Z,7.20
2022-11-17T23:44:06.151Z,7.20
2022-11-17T23:46:35.610Z,7.20
2022-11-17T23:49:03.969Z,7.20
2022-11-17T23:51:32.163Z,7.20
2022-11-17T23:54:03.135Z,7.20
2022-11-17T23:56:34.313Z,7.20
2022-11-17T23:59:02.456Z,7.20
